Time;durP1;ratioP1;P1;durP2;ratioP2;P2;SDS_P1;SDS_P2;PMS_P1;PMS_P2;Temp;Humidity;BMP_temperature;BMP_pressure;BME280_temperature;BME280_humidity;BME280_pressure;Samples;Min_cycle;Max_cycle;Signal;HPM_P1;HPM_P2
2021/10/25 00:00:27;;;;;;;6.20;5.60;;;9.00;99.90;;;;;;5012648;28;20428;-70
2021/10/25 00:02:56;;;;;;;6.20;4.90;;;8.90;99.90;;;;;;5013524;28;20417;-69
2021/10/25 00:05:22;;;;;;;8.00;4.80;;;8.90;99.90;;;;;;5012474;28;20466;-69
2021/10/25 00:07:48;;;;;;;5.60;4.60;;;8.90;99.90;;;;;;5012424;28;20412;-70
2021/10/25 00:10:13;;;;;;;7.00;4.90;;;8.90;99.90;;;;;;5012698;28;20410;-70
2021/10/25 00:12:40;;;;;;;6.73;5.50;;;8.90;99.90;;;;;;5012790;28;20205;-70
2021/10/25 00:15:08;;;;;;;5.73;5.17;;;9.00;99.90;;;;;;5012105;28;20176;-69
2021/10/25 00:17:33;;;;;;;6.40;5.10;;;9.00;99.90;;;;;;5012404;28;20423;-70
2021/10/25 00:19:59;;;;;;;7.30;5.17;;;9.00;99.90;;;;;;5020203;28;20776;-70
2021/10/25 00:22:24;;;;;;;8.77;4.97;;;9.00;99.90;;;;;;5031513;28;20176;-69
2021/10/25 00:24:50;;;;;;;6.20;5.13;;;9.00;99.90;;;;;;5031811;28;20273;-70
2021/10/25 00:27:16;;;;;;;7.37;5.23;;;9.00;99.90;;;;;;5031601;28;20293;-69
2021/10/25 00:29:42;;;;;;;7.80;5.90;;;9.00;99.90;;;;;;5031397;28;20196;-70
2021/10/25 00:32:07;;;;;;;5.17;4.70;;;9.10;99.90;;;;;;5031780;28;20178;-69
2021/10/25 00:34:33;;;;;;;5.60;4.63;;;9.10;99.90;;;;;;5031419;28;20432;-69
2021/10/25 00:37:02;;;;;;;5.70;4.93;;;9.10;99.90;;;;;;5023568;28;20655;-70
2021/10/25 00:39:30;;;;;;;6.70;4.73;;;9.10;99.90;;;;;;5012394;28;20175;-70
2021/10/25 00:41:56;;;;;;;5.80;5.20;;;9.20;99.90;;;;;;5016595;28;20433;-69
2021/10/25 00:44:22;;;;;;;8.37;5.47;;;9.20;99.90;;;;;;5031145;28;20494;-70
2021/10/25 00:46:47;;;;;;;6.40;4.80;;;9.20;99.90;;;;;;5031364;28;20521;-70
2021/10/25 00:49:13;;;;;;;7.63;5.03;;;9.20;99.90;;;;;;5031388;28;20433;-70
2021/10/25 00:51:38;;;;;;;6.53;5.30;;;9.20;99.90;;;;;;5031820;28;20176;-69
2021/10/25 00:54:04;;;;;;;6.00;5.50;;;9.20;99.90;;;;;;5030953;27;20194;-69
2021/10/25 00:56:32;;;;;;;5.10;4.70;;;9.30;99.90;;;;;;5024144;28;20257;-70
2021/10/25 00:58:58;;;;;;;7.10;5.53;;;9.30;99.90;;;;;;5011991;28;20174;-70
2021/10/25 01:01:23;;;;;;;8.37;5.07;;;9.30;99.90;;;;;;5012134;28;20445;-69
2021/10/25 01:03:49;;;;;;;5.87;4.80;;;9.30;99.90;;;;;;5020054;28;20239;-70
2021/10/25 01:06:15;;;;;;;5.87;5.27;;;9.30;99.90;;;;;;5019869;28;20335;-69
2021/10/25 01:08:42;;;;;;;5.53;5.03;;;9.30;99.90;;;;;;5012730;28;20607;-69
2021/10/25 01:11:08;;;;;;;5.43;4.80;;;9.30;99.90;;;;;;5010971;28;20466;-69
2021/10/25 01:13:34;;;;;;;7.23;5.73;;;9.30;99.90;;;;;;5018772;28;20889;-69
2021/10/25 01:16:01;;;;;;;6.33;5.60;;;9.30;99.90;;;;;;5031322;28;20517;-69
2021/10/25 01:18:27;;;;;;;6.50;4.90;;;9.30;99.90;;;;;;5027103;27;20209;-70
2021/10/25 01:20:52;;;;;;;5.37;4.87;;;9.30;99.90;;;;;;5025874;28;20443;-69
2021/10/25 01:23:18;;;;;;;4.70;4.20;;;9.30;99.90;;;;;;5014774;28;20252;-69
2021/10/25 01:25:45;;;;;;;5.13;4.63;;;9.30;99.90;;;;;;5011485;28;20668;-69
2021/10/25 01:28:11;;;;;;;6.30;5.03;;;9.30;99.90;;;;;;5011477;28;20168;-69
2021/10/25 01:30:37;;;;;;;6.33;5.83;;;9.30;99.90;;;;;;5010068;28;20427;-69
2021/10/25 01:33:02;;;;;;;6.30;5.07;;;9.30;99.90;;;;;;5010932;28;20414;-69
2021/10/25 01:35:28;;;;;;;7.97;5.10;;;9.20;99.90;;;;;;5010702;28;20187;-70
2021/10/25 01:37:53;;;;;;;6.83;3.90;;;9.20;99.90;;;;;;5011212;28;20525;-69
2021/10/25 01:40:19;;;;;;;7.17;4.80;;;9.20;99.90;;;;;;5011069;28;20169;-69
2021/10/25 01:42:45;;;;;;;5.77;5.27;;;9.20;99.90;;;;;;5011376;28;20655;-69
2021/10/25 01:45:11;;;;;;;5.60;5.10;;;9.20;99.90;;;;;;5010901;28;20459;-70
2021/10/25 01:47:37;;;;;;;5.40;4.60;;;9.20;99.90;;;;;;5021901;28;20177;-70
2021/10/25 01:50:03;;;;;;;5.50;4.97;;;9.20;99.90;;;;;;5030267;28;20891;-70
2021/10/25 01:52:29;;;;;;;5.00;4.50;;;9.10;99.90;;;;;;5030845;28;20177;-69
2021/10/25 01:54:55;;;;;;;5.73;4.87;;;9.10;99.90;;;;;;5030025;27;20784;-70
2021/10/25 01:57:20;;;;;;;6.30;4.80;;;9.10;99.90;;;;;;5030489;28;20426;-69
2021/10/25 01:59:46;;;;;;;5.70;4.87;;;9.10;99.90;;;;;;5030203;28;20651;-69
2021/10/25 02:02:11;;;;;;;6.43;4.70;;;9.10;99.90;;;;;;5029988;28;20605;-70
2021/10/25 02:04:37;;;;;;;6.67;5.10;;;9.00;99.90;;;;;;5028408;28;20709;-70
2021/10/25 02:07:02;;;;;;;6.27;5.10;;;9.00;99.90;;;;;;5030242;28;20190;-69
2021/10/25 02:09:28;;;;;;;6.40;4.57;;;9.00;99.90;;;;;;5030091;28;20216;-70
2021/10/25 02:11:54;;;;;;;6.73;4.90;;;8.90;99.90;;;;;;5030543;28;20199;-69
2021/10/25 02:14:19;;;;;;;5.90;5.30;;;8.70;99.90;;;;;;5030184;28;20173;-69
2021/10/25 02:16:45;;;;;;;6.33;5.23;;;8.60;99.90;;;;;;5030345;28;20186;-69
2021/10/25 02:19:11;;;;;;;5.90;5.30;;;8.60;99.90;;;;;;5030160;28;20695;-69
2021/10/25 02:21:37;;;;;;;6.83;5.77;;;8.50;99.90;;;;;;5015416;28;20258;-70
2021/10/25 02:24:03;;;;;;;6.10;4.73;;;8.40;99.90;;;;;;5014249;28;20407;-69
2021/10/25 02:26:29;;;;;;;5.93;5.33;;;8.40;99.90;;;;;;5014188;28;20462;-69
2021/10/25 02:28:55;;;;;;;5.13;4.40;;;8.40;99.90;;;;;;5014424;28;20413;-69
2021/10/25 02:31:21;;;;;;;5.83;4.70;;;8.40;99.90;;;;;;5014393;28;20264;-69
2021/10/25 02:33:47;;;;;;;5.87;5.10;;;8.50;99.90;;;;;;5013769;28;20438;-69
2021/10/25 02:36:13;;;;;;;5.90;5.30;;;8.50;99.90;;;;;;5015310;28;20434;-69
2021/10/25 02:38:40;;;;;;;8.07;4.90;;;8.50;99.90;;;;;;5033870;28;20261;-70
2021/10/25 02:41:07;;;;;;;7.77;5.33;;;8.50;99.90;;;;;;5035708;28;20405;-69
2021/10/25 02:43:33;;;;;;;8.80;5.10;;;8.40;99.90;;;;;;5021466;28;20426;-70
2021/10/25 02:45:59;;;;;;;5.63;5.03;;;8.50;99.90;;;;;;5013784;28;20464;-69
2021/10/25 02:48:25;;;;;;;5.60;5.10;;;8.40;99.90;;;;;;5014222;28;20403;-69
2021/10/25 02:50:52;;;;;;;7.50;6.80;;;8.50;99.90;;;;;;5014000;28;20180;-70
2021/10/25 02:53:18;;;;;;;5.10;4.60;;;8.50;99.90;;;;;;5014741;27;20514;-69
2021/10/25 02:55:43;;;;;;;9.67;5.33;;;8.50;99.90;;;;;;5014742;28;20908;-69
2021/10/25 02:58:09;;;;;;;9.17;5.77;;;8.60;99.90;;;;;;5033925;28;20416;-69
2021/10/25 03:00:34;;;;;;;5.87;4.60;;;8.50;99.90;;;;;;5034697;28;20178;-69
2021/10/25 03:03:02;;;;;;;5.30;4.57;;;8.50;99.90;;;;;;5033123;28;20203;-69
2021/10/25 03:05:28;;;;;;;6.03;4.97;;;8.40;99.90;;;;;;5035260;28;20469;-69
2021/10/25 03:07:54;;;;;;;7.10;5.27;;;8.40;99.90;;;;;;5042220;28;20416;-69
2021/10/25 03:10:19;;;;;;;5.87;5.03;;;8.40;99.90;;;;;;5034545;28;20417;-69
2021/10/25 03:12:47;;;;;;;5.67;5.07;;;8.50;99.90;;;;;;5033002;28;20174;-69
2021/10/25 03:15:13;;;;;;;8.70;5.50;;;8.40;99.90;;;;;;5034428;28;20552;-69
2021/10/25 03:17:38;;;;;;;7.60;5.50;;;8.40;99.90;;;;;;5035863;28;20448;-68
2021/10/25 03:20:04;;;;;;;5.90;5.33;;;8.40;99.90;;;;;;5024100;27;20458;-69
2021/10/25 03:22:30;;;;;;;5.53;4.93;;;8.40;99.90;;;;;;5029421;28;20274;-69
2021/10/25 03:24:56;;;;;;;5.67;4.83;;;8.30;99.90;;;;;;5013598;28;20427;-69
2021/10/25 03:27:21;;;;;;;5.77;4.63;;;8.20;99.90;;;;;;5013308;28;20188;-70
2021/10/25 03:29:47;;;;;;;6.77;5.47;;;8.20;99.90;;;;;;5019260;28;20230;-70
2021/10/25 03:32:13;;;;;;;5.57;5.03;;;8.10;99.90;;;;;;5032890;28;20167;-70
2021/10/25 03:34:39;;;;;;;5.67;5.17;;;8.10;99.90;;;;;;5032694;28;20202;-70
2021/10/25 03:37:06;;;;;;;7.33;5.30;;;8.00;99.90;;;;;;5032808;28;20826;-70
2021/10/25 03:39:35;;;;;;;5.93;4.70;;;8.10;99.90;;;;;;5032536;28;20875;-70
2021/10/25 03:42:04;;;;;;;6.47;5.67;;;8.10;99.90;;;;;;5031728;27;20477;-70
2021/10/25 03:44:37;;;;;;;5.80;4.70;;;8.10;99.90;;;;;;5032134;28;20899;-70
2021/10/25 03:47:12;;;;;;;6.47;5.83;;;8.20;99.90;;;;;;5022364;28;20445;-70
2021/10/25 03:49:47;;;;;;;9.63;4.83;;;8.30;99.90;;;;;;5012412;28;20437;-70
2021/10/25 03:52:25;;;;;;;12.10;8.50;;;8.30;99.90;;;;;;5018445;27;20449;-71
2021/10/25 03:55:11;;;;;;;7.50;5.73;;;8.30;99.90;;;;;;5024580;28;20414;-70
2021/10/25 04:27:30;;;;;;;6.30;4.90;;;8.30;99.90;;;;;;5028210;28;20424;-70
2021/10/25 04:30:05;;;;;;;6.13;4.97;;;8.40;99.90;;;;;;5030365;28;20418;-71
2021/10/25 04:32:30;;;;;;;6.20;5.40;;;8.30;99.90;;;;;;5031624;28;20424;-71
2021/10/25 04:34:56;;;;;;;6.43;5.37;;;8.30;99.90;;;;;;5031248;27;20873;-70
2021/10/25 04:37:21;;;;;;;6.80;4.97;;;8.30;99.90;;;;;;5032087;28;20306;-70
2021/10/25 04:39:47;;;;;;;7.37;5.20;;;8.20;99.90;;;;;;5030244;28;20612;-70
2021/10/25 04:42:16;;;;;;;7.93;5.60;;;8.20;99.90;;;;;;5024427;28;20170;-70
2021/10/25 04:44:43;;;;;;;8.00;5.37;;;8.20;99.90;;;;;;5010352;28;20170;-70
2021/10/25 04:47:09;;;;;;;6.10;5.30;;;8.20;99.90;;;;;;5011665;28;20445;-70
2021/10/25 04:49:35;;;;;;;6.23;5.13;;;8.20;99.90;;;;;;5012040;28;20509;-69
2021/10/25 04:52:00;;;;;;;6.43;5.83;;;8.10;99.90;;;;;;5013149;28;20267;-70
2021/10/25 04:54:26;;;;;;;5.40;4.90;;;8.10;99.90;;;;;;5011384;27;20707;-70
2021/10/25 04:56:51;;;;;;;6.67;5.40;;;8.10;99.90;;;;;;5011753;28;20239;-70
2021/10/25 04:59:17;;;;;;;6.60;5.40;;;8.10;99.90;;;;;;5011719;28;20529;-70
2021/10/25 05:01:43;;;;;;;6.17;5.40;;;8.00;99.90;;;;;;5011440;28;20176;-70
2021/10/25 05:04:08;;;;;;;7.33;6.30;;;8.00;99.90;;;;;;5012380;28;20207;-70
2021/10/25 05:06:34;;;;;;;8.30;6.40;;;7.90;99.90;;;;;;5009920;28;20211;-70
2021/10/25 05:08:59;;;;;;;9.70;7.07;;;7.80;99.90;;;;;;5012601;27;20198;-70
2021/10/25 05:11:25;;;;;;;9.17;8.37;;;7.80;99.90;;;;;;5011519;28;20176;-70
2021/10/25 05:13:50;;;;;;;10.60;6.50;;;7.80;99.90;;;;;;5012268;28;20255;-70
2021/10/25 05:16:16;;;;;;;10.17;7.57;;;7.80;99.90;;;;;;5011865;28;20235;-70
2021/10/25 05:18:42;;;;;;;8.30;7.30;;;7.60;99.90;;;;;;5011310;28;20199;-70
2021/10/25 05:21:07;;;;;;;8.63;6.13;;;7.60;99.90;;;;;;5010688;28;20621;-71
2021/10/25 05:23:33;;;;;;;7.30;6.40;;;7.60;99.90;;;;;;5011118;27;20273;-70
2021/10/25 05:25:58;;;;;;;5.67;5.00;;;7.60;99.90;;;;;;5023829;28;20230;-71
2021/10/25 05:28:24;;;;;;;8.20;6.23;;;7.60;99.90;;;;;;5013907;27;20730;-73
2021/10/25 05:30:50;;;;;;;7.27;5.60;;;7.60;99.90;;;;;;5045979;27;20217;-71
2021/10/25 05:33:15;;;;;;;6.07;5.57;;;7.60;99.90;;;;;;5101478;27;20219;-70
2021/10/25 05:35:42;;;;;;;7.73;7.03;;;7.50;99.90;;;;;;5057116;27;20210;-71
2021/10/25 05:38:08;;;;;;;10.53;8.27;;;7.50;99.90;;;;;;5035216;27;20319;-71
2021/10/25 05:40:33;;;;;;;12.20;9.23;;;7.50;99.90;;;;;;5076928;27;20508;-71
2021/10/25 05:43:01;;;;;;;8.27;7.47;;;7.50;99.90;;;;;;5099322;27;20202;-70
2021/10/25 05:45:27;;;;;;;9.57;6.37;;;7.50;99.90;;;;;;5041695;28;20203;-70
2021/10/25 05:47:53;;;;;;;7.57;6.80;;;7.50;99.90;;;;;;5008158;28;20431;-70
2021/10/25 05:50:18;;;;;;;8.77;5.77;;;7.40;99.90;;;;;;5033264;27;20228;-70
2021/10/25 05:52:44;;;;;;;6.40;5.33;;;7.40;99.90;;;;;;5051161;28;20636;-70
2021/10/25 05:55:09;;;;;;;6.60;5.90;;;7.30;99.90;;;;;;5053110;27;20224;-70
2021/10/25 05:57:35;;;;;;;7.10;5.10;;;7.30;99.90;;;;;;5039200;28;20171;-70
2021/10/25 06:00:03;;;;;;;6.97;6.30;;;7.30;99.90;;;;;;5030957;28;20576;-70
2021/10/25 06:02:35;;;;;;;6.60;5.10;;;7.40;99.90;;;;;;5031260;28;20195;-70
2021/10/25 06:05:00;;;;;;;13.67;5.23;;;7.40;99.90;;;;;;5030976;28;20387;-70
2021/10/25 06:07:26;;;;;;;7.17;6.13;;;7.40;99.90;;;;;;5025131;28;20450;-70
2021/10/25 06:09:51;;;;;;;6.93;6.07;;;7.40;99.90;;;;;;5010300;28;20181;-70
2021/10/25 06:12:19;;;;;;;7.60;5.63;;;7.40;99.90;;;;;;5010508;28;20251;-70
2021/10/25 06:14:47;;;;;;;5.90;5.30;;;7.50;99.90;;;;;;5010670;28;20178;-70
2021/10/25 06:19:42;;;;;;;6.20;5.30;;;7.50;99.90;;;;;;5017507;28;20390;-70
2021/10/25 06:22:08;;;;;;;6.60;5.70;;;7.40;99.90;;;;;;5012446;28;20473;-70
2021/10/25 06:24:33;;;;;;;7.17;5.90;;;7.40;99.90;;;;;;5009010;28;20213;-70
2021/10/25 06:26:59;;;;;;;7.63;5.90;;;7.40;99.90;;;;;;5010994;28;20244;-70
2021/10/25 06:29:24;;;;;;;9.13;6.20;;;7.40;99.90;;;;;;5011713;28;20698;-70
2021/10/25 06:31:50;;;;;;;7.50;6.80;;;7.40;99.90;;;;;;5011498;28;20197;-70
2021/10/25 06:34:24;;;;;;;7.00;6.23;;;7.50;99.90;;;;;;5011442;28;20180;-70
2021/10/25 06:36:52;;;;;;;6.23;5.60;;;7.40;99.90;;;;;;5010644;28;20620;-70
2021/10/25 06:39:39;;;;;;;6.23;5.63;;;7.50;99.90;;;;;;5011033;28;20430;-70
2021/10/25 06:42:08;;;;;;;6.87;5.40;;;7.60;99.90;;;;;;5034999;28;20409;-70
2021/10/25 06:47:20;;;;;;;7.53;5.80;;;7.60;99.90;;;;;;5030437;28;20446;-70
2021/10/25 06:49:46;;;;;;;9.40;6.70;;;7.60;99.90;;;;;;5029314;28;20914;-70
2021/10/25 06:52:11;;;;;;;8.40;6.50;;;7.50;99.90;;;;;;5028430;28;20418;-71
2021/10/25 06:54:37;;;;;;;12.40;6.93;;;7.50;99.90;;;;;;5029240;27;20189;-69
2021/10/25 06:57:03;;;;;;;6.37;5.20;;;7.40;99.90;;;;;;5030991;28;20206;-70
2021/10/25 06:59:28;;;;;;;5.93;5.33;;;7.50;99.90;;;;;;5032791;28;20191;-69
2021/10/25 07:01:55;;;;;;;8.67;5.83;;;7.60;99.90;;;;;;5009988;28;20854;-70
2021/10/25 07:04:20;;;;;;;7.43;5.20;;;7.60;99.90;;;;;;5009550;28;20632;-70
2021/10/25 07:06:46;;;;;;;7.97;6.17;;;7.70;99.90;;;;;;5009913;28;20556;-70
2021/10/25 07:09:12;;;;;;;6.07;5.47;;;7.80;99.90;;;;;;5013771;27;20279;-70
2021/10/25 07:11:43;;;;;;;6.57;5.30;;;7.80;99.90;;;;;;5014968;28;20198;-70
2021/10/25 07:14:08;;;;;;;6.53;5.50;;;7.90;99.90;;;;;;5013054;28;20856;-70
2021/10/25 07:16:44;;;;;;;6.17;5.00;;;8.00;99.90;;;;;;5012794;28;20431;-70
2021/10/25 07:26:19;;;;;;;9.30;5.30;;;8.10;99.90;;;;;;5033304;28;20421;-70
2021/10/25 08:00:31;;;;;;;4.80;4.40;;;8.80;99.90;;;;;;5013231;28;20440;-71
2021/10/25 08:10:44;;;;;;;6.50;4.10;;;9.00;99.90;;;;;;5012596;28;20387;-71
2021/10/25 08:13:17;;;;;;;6.90;4.33;;;9.10;99.90;;;;;;5012351;28;20914;-71
2021/10/25 08:15:45;;;;;;;8.87;3.90;;;9.20;99.90;;;;;;5013551;28;20456;-71
2021/10/25 08:20:57;;;;;;;6.50;4.77;;;9.30;99.90;;;;;;5013027;28;20417;-71
2021/10/25 08:23:23;;;;;;;7.13;3.93;;;9.40;99.90;;;;;;5013371;28;20502;-71
2021/10/25 08:25:49;;;;;;;4.00;3.60;;;9.50;99.90;;;;;;5025663;28;20547;-71
2021/10/25 08:28:15;;;;;;;3.70;3.20;;;9.50;99.90;;;;;;5031465;27;20430;-71
2021/10/25 08:30:41;;;;;;;4.10;3.67;;;9.60;99.90;;;;;;5032278;28;20177;-71
2021/10/25 08:36:13;;;;;;;5.93;4.20;;;9.70;99.90;;;;;;5030970;28;20448;-71
2021/10/25 08:41:24;;;;;;;5.73;4.20;;;9.90;99.90;;;;;;5040789;28;20464;-71
2021/10/25 08:43:51;;;;;;;5.67;3.67;;;10.00;99.90;;;;;;5031877;28;20774;-71
2021/10/25 08:46:18;;;;;;;6.67;4.27;;;10.10;99.90;;;;;;5031634;28;20857;-71
2021/10/25 08:48:47;;;;;;;4.80;4.13;;;10.10;99.90;;;;;;5031170;28;20436;-71
2021/10/25 08:51:16;;;;;;;5.20;4.30;;;10.20;99.90;;;;;;5031795;28;20409;-71
2021/10/25 08:53:42;;;;;;;4.43;3.77;;;10.30;99.90;;;;;;5029980;28;20424;-71
2021/10/25 08:56:08;;;;;;;5.17;3.83;;;10.40;99.90;;;;;;5031312;27;20451;-71
2021/10/25 08:58:36;;;;;;;3.90;3.50;;;10.50;99.90;;;;;;5032780;28;20617;-72
2021/10/25 09:01:02;;;;;;;3.63;3.33;;;10.50;99.90;;;;;;5032160;28;20426;-71
2021/10/25 09:03:28;;;;;;;3.53;3.23;;;10.60;99.90;;;;;;5030497;28;20914;-71
2021/10/25 09:05:56;;;;;;;3.57;3.27;;;10.70;99.90;;;;;;5032925;27;20469;-71
2021/10/25 09:08:22;;;;;;;4.20;3.23;;;10.70;99.90;;;;;;5035035;28;20191;-71
2021/10/25 09:10:48;;;;;;;5.40;3.83;;;10.80;99.90;;;;;;5039476;28;20880;-71
2021/10/25 09:13:25;;;;;;;5.50;4.97;;;10.90;99.90;;;;;;5031167;28;20455;-71
2021/10/25 09:15:56;;;;;;;4.90;3.50;;;11.00;99.90;;;;;;5011865;28;20191;-71
2021/10/25 09:18:24;;;;;;;3.83;3.40;;;11.10;99.90;;;;;;5012056;28;20403;-71
2021/10/25 09:21:01;;;;;;;4.97;4.10;;;11.10;99.90;;;;;;5012577;28;20179;-71
2021/10/25 09:23:49;;;;;;;4.33;3.73;;;11.30;99.90;;;;;;5025839;28;20425;-71
2021/10/25 09:26:16;;;;;;;4.40;3.30;;;11.30;99.90;;;;;;5031984;28;20856;-71
2021/10/25 09:28:50;;;;;;;3.60;3.30;;;11.40;99.90;;;;;;5032334;28;20417;-71
2021/10/25 09:31:23;;;;;;;5.07;3.90;;;11.50;99.90;;;;;;5031998;28;20387;-71
2021/10/25 09:34:05;;;;;;;5.43;4.10;;;11.60;99.90;;;;;;5039471;28;20995;-71
2021/10/25 09:36:39;;;;;;;4.27;3.60;;;11.60;99.90;;;;;;5032274;28;20429;-71
2021/10/25 09:39:45;;;;;;;4.73;3.43;;;11.70;99.90;;;;;;5032235;28;20978;-71
2021/10/25 09:45:41;;;;;;;11.40;3.27;;;11.90;99.90;;;;;;5014378;28;20429;-70
2021/10/25 09:51:00;;;;;;;4.33;3.60;;;12.20;99.90;;;;;;5014703;28;21012;-72
2021/10/25 09:53:46;;;;;;;3.50;3.20;;;12.30;99.90;;;;;;5009595;28;20410;-72
2021/10/25 09:56:15;;;;;;;6.30;3.90;;;12.40;99.90;;;;;;5010708;27;20495;-70
2021/10/25 09:58:53;;;;;;;4.10;3.10;;;12.50;99.90;;;;;;5011462;28;20398;-71
2021/10/25 10:01:23;;;;;;;6.53;3.40;;;12.60;99.90;;;;;;5011047;28;20759;-71
2021/10/25 10:03:49;;;;;;;7.80;3.30;;;12.70;99.90;;;;;;5012083;28;20399;-71
2021/10/25 10:06:15;;;;;;;4.03;3.40;;;12.80;99.90;;;;;;5013606;28;20462;-73
2021/10/25 10:08:42;;;;;;;4.30;3.80;;;12.90;99.90;;;;;;5012373;28;20908;-71
2021/10/25 10:11:09;;;;;;;5.27;3.63;;;13.00;99.90;;;;;;5010735;28;20524;-71
2021/10/25 10:13:35;;;;;;;5.47;3.60;;;13.10;99.90;;;;;;5010155;28;20410;-71
2021/10/25 10:16:05;;;;;;;4.70;3.17;;;13.10;99.90;;;;;;5012154;28;20442;-70
2021/10/25 10:18:34;;;;;;;4.37;3.70;;;13.10;99.90;;;;;;5010529;28;20429;-71
2021/10/25 10:21:05;;;;;;;5.40;3.30;;;13.20;99.90;;;;;;5011140;28;20418;-71
2021/10/25 10:23:32;;;;;;;14.97;4.63;;;13.40;99.90;;;;;;5010362;28;20427;-71
2021/10/25 10:26:03;;;;;;;7.40;3.90;;;13.50;99.90;;;;;;5011818;28;20458;-71
2021/10/25 10:28:37;;;;;;;4.20;3.40;;;13.50;99.90;;;;;;5011025;28;20857;-71
2021/10/25 10:31:11;;;;;;;4.37;3.50;;;13.70;99.90;;;;;;5011339;28;20394;-71
2021/10/25 10:33:40;;;;;;;6.13;3.50;;;13.80;99.90;;;;;;5010724;28;20910;-71
2021/10/25 10:36:18;;;;;;;6.90;3.50;;;13.80;99.90;;;;;;5012574;28;20958;-71
2021/10/25 10:38:59;;;;;;;4.60;3.20;;;13.90;99.90;;;;;;5011168;28;20491;-71
2021/10/25 10:41:51;;;;;;;5.33;3.33;;;14.00;99.90;;;;;;5031288;28;20409;-71
2021/10/25 10:44:18;;;;;;;3.90;3.30;;;14.20;99.90;;;;;;5034018;28;20440;-70
2021/10/25 10:47:06;;;;;;;4.07;3.10;;;14.20;99.90;;;;;;5034929;28;20556;-71
2021/10/25 10:49:39;;;;;;;4.33;3.17;;;14.10;99.90;;;;;;5050072;28;20424;-70
2021/10/25 10:55:04;;;;;;;4.77;3.17;;;14.20;99.90;;;;;;5026160;27;20446;-70
2021/10/25 11:00:27;;;;;;;6.47;3.00;;;14.40;99.80;;;;;;5011951;27;20443;-70
2021/10/25 11:03:14;;;;;;;4.20;3.20;;;14.40;99.70;;;;;;5010586;28;20423;-71
2021/10/25 11:05:42;;;;;;;3.40;2.97;;;14.50;99.60;;;;;;5010672;28;20234;-70
2021/10/25 11:08:12;;;;;;;6.47;2.90;;;14.50;99.50;;;;;;5012776;28;20507;-70
2021/10/25 11:10:40;;;;;;;4.53;3.53;;;14.70;99.40;;;;;;5010821;27;20439;-69
2021/10/25 11:13:15;;;;;;;4.10;3.17;;;14.60;99.10;;;;;;5012038;28;20466;-69
2021/10/25 11:17:07;;;;;;;5.10;3.13;;;14.70;99.10;;;;;;5010593;27;20518;-69
2021/10/25 11:18:58;;;;;;;5.70;3.50;;;14.70;99.20;;;;;;4981841;28;20479;-70
2021/10/25 11:21:33;;;;;;;3.50;3.20;;;14.90;99.30;;;;;;4971651;28;20925;-70
2021/10/25 11:24:03;;;;;;;4.33;2.80;;;15.00;99.00;;;;;;4955571;28;20435;-70
2021/10/25 11:26:58;;;;;;;3.50;2.70;;;15.10;99.00;;;;;;4973175;28;20558;-71
2021/10/25 11:29:27;;;;;;;4.73;2.93;;;15.00;99.20;;;;;;4973689;28;20440;-71
2021/10/25 11:31:58;;;;;;;4.07;2.87;;;15.10;99.20;;;;;;4974743;28;20413;-70
2021/10/25 11:34:30;;;;;;;3.87;2.80;;;15.20;99.00;;;;;;4971314;28;20401;-71
2021/10/25 11:37:05;;;;;;;3.37;3.00;;;15.10;98.90;;;;;;4971780;28;20452;-70
2021/10/25 11:39:58;;;;;;;4.07;3.00;;;15.00;99.20;;;;;;4971880;28;20457;-71
2021/10/25 11:42:35;;;;;;;6.87;3.23;;;15.00;99.30;;;;;;5048340;28;20913;-70
2021/10/25 11:45:06;;;;;;;5.57;3.30;;;15.00;99.40;;;;;;5052539;28;20503;-71
2021/10/25 11:47:37;;;;;;;3.80;3.50;;;14.90;99.40;;;;;;4971547;28;20542;-70
2021/10/25 11:50:05;;;;;;;9.50;3.80;;;14.80;99.70;;;;;;4971900;28;20508;-70
2021/10/25 11:52:43;;;;;;;4.10;3.33;;;14.80;99.90;;;;;;4955709;28;20421;-71
2021/10/25 11:55:12;;;;;;;4.23;3.43;;;14.80;99.90;;;;;;4994757;27;20430;-70
2021/10/25 11:57:55;;;;;;;4.80;3.43;;;14.70;99.90;;;;;;5013987;28;20423;-70
2021/10/25 12:00:24;;;;;;;9.00;3.80;;;14.70;99.90;;;;;;5013129;28;20437;-71
2021/10/25 12:02:50;;;;;;;5.27;3.87;;;14.80;99.90;;;;;;5014218;28;20417;-70
2021/10/25 12:05:24;;;;;;;5.70;3.90;;;14.80;99.90;;;;;;5015100;28;20466;-70
2021/10/25 12:07:52;;;;;;;4.57;3.50;;;14.90;99.90;;;;;;5015310;28;20441;-70
2021/10/25 12:10:19;;;;;;;4.30;3.10;;;14.90;99.40;;;;;;5014083;28;20494;-70
2021/10/25 12:12:45;;;;;;;3.93;3.20;;;14.80;99.60;;;;;;5013582;28;20437;-70
2021/10/25 12:15:16;;;;;;;3.80;3.50;;;14.80;99.60;;;;;;5013101;28;20414;-70
2021/10/25 12:17:43;;;;;;;3.33;3.00;;;14.80;99.50;;;;;;5017737;28;20174;-70
2021/10/25 12:20:21;;;;;;;3.90;3.50;;;15.00;99.00;;;;;;5033387;28;20410;-70
2021/10/25 12:22:56;;;;;;;4.00;3.20;;;15.00;98.70;;;;;;5035490;28;20394;-71
2021/10/25 12:25:22;;;;;;;5.73;3.70;;;15.10;98.40;;;;;;5040165;28;20468;-70
2021/10/25 12:27:47;;;;;;;4.10;3.63;;;15.20;98.40;;;;;;5033226;28;20766;-71
2021/10/25 12:30:18;;;;;;;3.27;2.97;;;15.10;98.10;;;;;;5032143;28;20186;-70
2021/10/25 12:32:54;;;;;;;3.50;3.20;;;15.20;98.20;;;;;;5031782;28;20587;-71
2021/10/25 12:35:30;;;;;;;4.10;3.40;;;15.20;98.10;;;;;;5031667;28;20445;-71
2021/10/25 12:38:00;;;;;;;3.67;3.37;;;15.30;98.20;;;;;;5025091;28;20520;-71
2021/10/25 12:40:27;;;;;;;5.43;3.47;;;15.30;98.20;;;;;;5017202;28;20427;-70
2021/10/25 12:43:00;;;;;;;3.67;2.90;;;15.30;98.30;;;;;;5038354;28;20475;-71
2021/10/25 12:45:29;;;;;;;4.57;3.40;;;15.40;98.40;;;;;;5034018;28;20468;-70
2021/10/25 12:47:59;;;;;;;4.90;3.63;;;15.50;98.30;;;;;;5034219;28;20422;-70
2021/10/25 12:50:29;;;;;;;4.13;3.50;;;15.40;98.10;;;;;;5040825;28;20461;-70
2021/10/25 12:52:55;;;;;;;5.13;4.00;;;15.40;98.10;;;;;;5031108;28;20430;-69
2021/10/25 12:55:21;;;;;;;4.93;3.20;;;15.40;98.10;;;;;;5031942;27;20806;-69
2021/10/25 12:57:46;;;;;;;3.97;3.40;;;15.50;98.30;;;;;;5032346;28;20210;-70
2021/10/25 13:00:15;;;;;;;3.50;3.20;;;15.60;98.40;;;;;;5031767;28;20187;-70
2021/10/25 13:02:44;;;;;;;4.87;3.40;;;15.70;98.40;;;;;;5029678;28;20278;-69
2021/10/25 13:05:15;;;;;;;4.43;2.93;;;15.70;98.20;;;;;;5030461;28;20409;-70
2021/10/25 13:07:48;;;;;;;3.90;3.50;;;15.80;98.20;;;;;;5032032;28;20401;-69
2021/10/25 13:10:14;;;;;;;4.83;3.67;;;15.70;98.20;;;;;;5031363;28;20942;-70
2021/10/25 13:12:39;;;;;;;3.47;3.03;;;15.60;98.10;;;;;;5032009;28;20494;-70
2021/10/25 13:15:06;;;;;;;3.87;2.93;;;15.60;98.30;;;;;;5029320;28;20414;-71
2021/10/25 13:17:31;;;;;;;3.77;3.13;;;15.60;98.40;;;;;;5027027;28;21199;-70
2021/10/25 13:19:57;;;;;;;2.87;2.60;;;15.70;98.40;;;;;;5014906;27;20538;-71
2021/10/25 13:22:23;;;;;;;4.03;3.40;;;15.80;98.50;;;;;;5009450;27;20215;-69
2021/10/25 13:24:48;;;;;;;4.10;3.00;;;15.80;98.30;;;;;;5023492;28;20572;-71
2021/10/25 13:27:14;;;;;;;5.10;3.90;;;15.80;98.20;;;;;;5027704;27;20223;-70
2021/10/25 13:29:40;;;;;;;5.27;3.83;;;15.80;98.30;;;;;;5016790;27;20289;-70
2021/10/25 13:32:06;;;;;;;4.33;3.57;;;15.80;98.50;;;;;;5016733;27;20488;-70
2021/10/25 13:34:33;;;;;;;6.17;5.67;;;15.70;98.60;;;;;;5021808;28;20248;-70
2021/10/25 13:36:59;;;;;;;5.67;4.50;;;15.70;98.90;;;;;;5013944;27;21322;-70
2021/10/25 13:39:24;;;;;;;4.83;3.33;;;15.80;99.10;;;;;;5017742;27;20506;-71
2021/10/25 13:41:55;;;;;;;4.90;3.53;;;15.80;99.20;;;;;;5026982;27;20219;-71
2021/10/25 13:44:21;;;;;;;3.83;3.37;;;15.80;99.10;;;;;;4997084;28;20565;-70
2021/10/25 13:46:46;;;;;;;5.40;3.60;;;15.70;99.40;;;;;;5011475;28;21263;-70
2021/10/25 13:49:12;;;;;;;4.53;3.40;;;15.60;99.70;;;;;;5014934;27;20516;-70
2021/10/25 13:51:38;;;;;;;5.60;3.90;;;15.60;99.90;;;;;;5025201;28;20186;-70
2021/10/25 13:54:05;;;;;;;4.40;3.23;;;15.60;99.90;;;;;;5010617;28;20191;-70
2021/10/25 13:56:32;;;;;;;4.00;3.60;;;15.70;99.90;;;;;;5005634;28;20664;-70
2021/10/25 13:58:58;;;;;;;4.90;3.80;;;15.70;99.90;;;;;;5005952;28;20992;-70
2021/10/25 14:01:24;;;;;;;3.53;3.20;;;15.60;99.90;;;;;;5005201;28;20418;-70
2021/10/25 14:03:51;;;;;;;3.97;3.20;;;15.60;99.90;;;;;;5012974;28;20187;-69
2021/10/25 14:06:23;;;;;;;4.90;3.70;;;15.70;99.90;;;;;;5026374;28;20203;-69
2021/10/25 14:08:50;;;;;;;3.73;3.30;;;15.70;99.90;;;;;;5016461;27;20442;-70
2021/10/25 14:11:24;;;;;;;5.10;3.30;;;15.60;99.90;;;;;;5017495;28;20512;-70
2021/10/25 14:18:45;;;;;;;5.73;3.27;;;15.70;99.90;;;;;;5029908;28;20171;-70
2021/10/25 14:21:15;;;;;;;4.00;3.60;;;15.60;99.90;;;;;;5029772;28;20936;-71
2021/10/25 14:23:40;;;;;;;3.50;3.13;;;15.70;99.90;;;;;;5028575;28;20445;-70
2021/10/25 14:26:06;;;;;;;3.60;3.20;;;15.80;99.90;;;;;;5013033;28;20831;-69
2021/10/25 14:28:32;;;;;;;5.63;4.17;;;15.80;99.90;;;;;;5011052;28;20190;-69
2021/10/25 14:30:58;;;;;;;4.03;3.43;;;15.70;99.90;;;;;;5010116;28;20199;-71
2021/10/25 14:33:26;;;;;;;3.83;3.43;;;15.70;99.90;;;;;;5010179;27;20411;-70
2021/10/25 14:35:52;;;;;;;4.90;3.87;;;15.70;99.90;;;;;;5013061;28;20445;-70
2021/10/25 14:38:40;;;;;;;4.90;3.47;;;15.70;99.90;;;;;;5010511;28;20447;-70
2021/10/25 14:41:17;;;;;;;4.70;4.00;;;15.60;99.90;;;;;;5010677;28;20434;-69
2021/10/25 14:43:52;;;;;;;4.90;4.03;;;15.60;99.90;;;;;;5029273;28;20420;-69
2021/10/25 14:46:34;;;;;;;4.97;3.53;;;15.60;99.90;;;;;;5029202;28;20457;-69